SND78 YBWP-YSOL

Flight info

Callsign SND78
Flight time 4h 4m
Altitude 34000
Route AROXO J151 PD Q9 GOOTA
Aircraft A319/M-SDE3FGHIRWY/LB1

Departure

Time 2026-04-16 21:35
Airport Weipa Airport (YBWP)

Arrival

Time 2026-04-17 01:40
Airport Solomon Airport (YSOL)
Time Latitude Longitude Altitude Speed Heading
2026-04-16 21:19 -12.67982 141.92342 67 ft 0 kts 181°
2026-04-16 21:25 -12.67957 141.92343 67 ft 3 kts 181°
2026-04-16 21:26 -12.67933 141.92334 67 ft 3 kts 134°
2026-04-16 21:26 -12.67931 141.92333 67 ft 0 kts 129°
2026-04-16 21:29 -12.67933 141.92334 67 ft 1 kts 129°
2026-04-16 21:30 -12.67940 141.92343 67 ft 1 kts 128°
2026-04-16 21:30 -12.67950 141.92357 67 ft 3 kts 127°
2026-04-16 21:30 -12.67965 141.92377 67 ft 4 kts 127°
2026-04-16 21:30 -12.67983 141.92404 67 ft 4 kts 118°
2026-04-16 21:31 -12.67986 141.92441 67 ft 5 kts 66°
2026-04-16 21:31 -12.67954 141.92471 67 ft 6 kts 32°
2026-04-16 21:31 -12.67909 141.92485 67 ft 7 kts 332°
2026-04-16 21:31 -12.67867 141.92430 67 ft 13 kts 304°
2026-04-16 21:32 -12.67796 141.92323 67 ft 21 kts 304°
2026-04-16 21:32 -12.67713 141.92198 66 ft 21 kts 304°
2026-04-16 21:32 -12.67628 141.92073 66 ft 21 kts 304°
2026-04-16 21:32 -12.67545 141.91948 65 ft 21 kts 304°
2026-04-16 21:33 -12.67460 141.91823 65 ft 21 kts 304°
2026-04-16 21:33 -12.67376 141.91698 64 ft 21 kts 305°
2026-04-16 21:33 -12.67348 141.91632 64 ft 1 kts 309°
2026-04-16 21:33 -12.67343 141.91637 64 ft 2 kts 82°
2026-04-16 21:34 -12.67349 141.91656 64 ft 0 kts 119°
2026-04-16 21:34 -12.67350 141.91658 64 ft 6 kts 119°
2026-04-16 21:34 -12.67527 141.91923 65 ft 82 kts 124°
2026-04-16 21:34 -12.67985 141.92604 69 ft 145 kts 124°
2026-04-16 21:35 -12.68605 141.93497 556 ft 155 kts 122°
2026-04-16 21:35 -12.69193 141.94334 1390 ft 145 kts 121°
2026-04-16 21:35 -12.69757 141.95146 2164 ft 140 kts 118°
2026-04-16 21:35 -12.70331 141.96017 2512 ft 158 kts 118°
2026-04-16 21:36 -12.71105 141.96898 2831 ft 184 kts 140°
2026-04-16 21:36 -12.72463 141.97189 3157 ft 225 kts 181°
2026-04-16 21:36 -12.73994 141.96397 3442 ft 268 kts 221°
2026-04-16 21:36 -12.74927 141.94678 3932 ft 289 kts 258°
2026-04-16 21:37 -12.75109 141.92601 4417 ft 304 kts 268°
2026-04-16 21:37 -12.75262 141.90419 5109 ft 310 kts 265°
2026-04-16 21:37 -12.75555 141.88255 5854 ft 313 kts 260°
2026-04-16 21:37 -12.75986 141.86083 6677 ft 313 kts 258°
2026-04-16 21:38 -12.76477 141.83933 7483 ft 312 kts 257°
2026-04-16 21:38 -12.77017 141.81764 8133 ft 316 kts 256°
2026-04-16 21:38 -12.77571 141.79590 8814 ft 318 kts 256°
2026-04-16 21:38 -12.78127 141.77418 9479 ft 319 kts 256°
2026-04-16 21:39 -12.78692 141.75221 10138 ft 320 kts 256°
2026-04-16 21:39 -12.79266 141.73000 10559 ft 330 kts 256°
2026-04-16 21:39 -12.79863 141.70688 10822 ft 345 kts 256°
2026-04-16 21:39 -12.80489 141.68268 11107 ft 359 kts 256°
2026-04-16 21:40 -12.81138 141.65765 11607 ft 364 kts 256°
2026-04-16 21:40 -12.81782 141.63283 12204 ft 365 kts 256°
2026-04-16 21:40 -12.82437 141.60754 12799 ft 367 kts 256°
2026-04-16 21:40 -12.83093 141.58220 13368 ft 368 kts 256°
2026-04-16 21:41 -12.83751 141.55685 13898 ft 371 kts 256°
2026-04-16 21:41 -12.84406 141.53155 14389 ft 374 kts 256°
2026-04-16 21:41 -12.85081 141.50548 14892 ft 377 kts 256°
2026-04-16 21:41 -12.85750 141.47965 15370 ft 381 kts 256°
2026-04-16 21:42 -12.86429 141.45332 15856 ft 383 kts 257°
2026-04-16 21:42 -12.87108 141.42703 16344 ft 386 kts 257°
2026-04-16 21:42 -12.87796 141.40039 16816 ft 388 kts 257°
2026-04-16 21:42 -12.88487 141.37361 17277 ft 390 kts 257°
2026-04-16 21:43 -12.89181 141.34668 17718 ft 393 kts 257°
2026-04-16 21:43 -12.89884 141.31938 18142 ft 396 kts 257°
2026-04-16 21:43 -12.90579 141.29234 18548 ft 398 kts 257°
2026-04-16 21:43 -12.91286 141.26486 18946 ft 401 kts 257°
2026-04-16 21:44 -12.91999 141.23712 19341 ft 403 kts 257°
2026-04-16 21:44 -12.92713 141.20938 19732 ft 406 kts 257°
2026-04-16 21:44 -12.93433 141.18140 20108 ft 408 kts 257°
2026-04-16 21:44 -12.94157 141.15326 20463 ft 411 kts 257°
2026-04-16 21:45 -12.94886 141.12489 20836 ft 413 kts 257°
2026-04-16 21:45 -12.95619 141.09630 21205 ft 414 kts 257°
2026-04-16 21:45 -12.96354 141.06773 21547 ft 416 kts 257°
2026-04-16 21:45 -12.97085 141.03922 21873 ft 418 kts 257°
2026-04-16 21:46 -12.97829 141.01021 22209 ft 420 kts 257°
2026-04-16 21:46 -12.98571 140.98125 22545 ft 422 kts 257°
2026-04-16 21:46 -12.99306 140.95254 22869 ft 424 kts 257°
2026-04-16 21:46 -13.00063 140.92300 23205 ft 425 kts 257°
2026-04-16 21:47 -13.00812 140.89377 23545 ft 426 kts 257°
2026-04-16 21:47 -13.01566 140.86435 23883 ft 428 kts 257°
2026-04-16 21:47 -13.02318 140.83495 24221 ft 428 kts 257°
2026-04-16 21:47 -13.03073 140.80537 24548 ft 429 kts 257°
2026-04-16 21:48 -13.03822 140.77611 24849 ft 431 kts 257°
2026-04-16 21:48 -13.04580 140.74638 25156 ft 432 kts 257°
2026-04-16 21:48 -13.05341 140.71654 25461 ft 433 kts 257°
2026-04-16 21:48 -13.06103 140.68666 25757 ft 434 kts 257°
2026-04-16 21:49 -13.06864 140.65678 26047 ft 436 kts 257°
2026-04-16 21:49 -13.07632 140.62668 26331 ft 437 kts 257°
2026-04-16 21:49 -13.08397 140.59660 26612 ft 439 kts 257°
2026-04-16 21:49 -13.09168 140.56633 26882 ft 440 kts 257°
2026-04-16 21:50 -13.09942 140.53590 27153 ft 442 kts 257°
2026-04-16 21:50 -13.10721 140.50526 27429 ft 443 kts 257°
2026-04-16 21:50 -13.11494 140.47488 27696 ft 444 kts 257°
2026-04-16 21:50 -13.12275 140.44414 27963 ft 445 kts 257°
2026-04-16 21:51 -13.13048 140.41368 28221 ft 446 kts 257°
2026-04-16 21:51 -13.13831 140.38280 28482 ft 447 kts 257°
2026-04-16 21:51 -13.14612 140.35199 28732 ft 449 kts 256°
2026-04-16 21:51 -13.15397 140.32103 28969 ft 450 kts 257°
2026-04-16 21:52 -13.16184 140.28998 29183 ft 453 kts 257°
2026-04-16 21:52 -13.16971 140.25884 29442 ft 453 kts 257°
2026-04-16 21:52 -13.17769 140.22734 29749 ft 453 kts 257°
2026-04-16 21:52 -13.18556 140.19623 30060 ft 453 kts 257°
2026-04-16 21:53 -13.19342 140.16516 30363 ft 452 kts 257°
2026-04-16 21:53 -13.20127 140.13405 30668 ft 452 kts 257°
2026-04-16 21:53 -13.20922 140.10263 30965 ft 452 kts 257°
2026-04-16 21:53 -13.21705 140.07161 31263 ft 451 kts 257°
2026-04-16 21:54 -13.22488 140.04054 31580 ft 450 kts 257°
2026-04-16 21:54 -13.23270 140.00952 31882 ft 450 kts 257°
2026-04-16 21:54 -13.24052 139.97845 32177 ft 449 kts 257°
2026-04-16 21:54 -13.24829 139.94763 32425 ft 450 kts 257°
2026-04-16 21:55 -13.25611 139.91655 32654 ft 451 kts 257°
2026-04-16 21:55 -13.26396 139.88535 32900 ft 452 kts 257°
2026-04-16 21:55 -13.27179 139.85422 33153 ft 453 kts 257°
2026-04-16 21:55 -13.27964 139.82295 33402 ft 454 kts 257°
2026-04-16 21:56 -13.28751 139.79163 33654 ft 455 kts 257°
2026-04-16 21:56 -13.29536 139.76035 33881 ft 456 kts 257°
2026-04-16 21:56 -13.30329 139.72873 33903 ft 457 kts 257°
2026-04-16 21:57 -13.31912 139.66557 33907 ft 457 kts 257°
2026-04-16 21:57 -13.33488 139.60266 33911 ft 457 kts 257°
2026-04-16 21:58 -13.35065 139.53957 33912 ft 456 kts 257°
2026-04-16 21:58 -13.36652 139.47603 33914 ft 456 kts 257°
2026-04-16 21:59 -13.38233 139.41267 33914 ft 457 kts 257°
2026-04-16 21:59 -13.39809 139.34943 33915 ft 457 kts 257°
2026-04-16 22:00 -13.41386 139.28612 33916 ft 456 kts 257°
2026-04-16 22:00 -13.42961 139.22282 33915 ft 456 kts 257°
2026-04-16 22:01 -13.44522 139.15993 33914 ft 456 kts 258°
2026-04-16 22:01 -13.45319 139.09528 33914 ft 453 kts 272°
2026-04-16 22:02 -13.44532 139.03165 33913 ft 450 kts 287°
2026-04-16 22:02 -13.42276 138.97235 33914 ft 447 kts 300°
2026-04-16 22:03 -13.39298 138.91638 33912 ft 447 kts 301°
2026-04-16 22:03 -13.36292 138.86046 33916 ft 447 kts 301°
2026-04-16 22:04 -13.33299 138.80440 33920 ft 446 kts 301°
2026-04-16 22:04 -13.30314 138.74832 33919 ft 446 kts 301°
2026-04-16 22:05 -13.27334 138.69232 33918 ft 446 kts 301°
2026-04-16 22:05 -13.24351 138.63628 33919 ft 447 kts 300°
2026-04-16 22:06 -13.21380 138.58049 33918 ft 447 kts 301°
2026-04-16 22:06 -13.16917 138.49675 33916 ft 446 kts 301°
2026-04-16 22:07 -13.13930 138.44075 33917 ft 446 kts 301°
2026-04-16 22:07 -13.10954 138.38500 33921 ft 446 kts 301°
2026-04-16 22:08 -13.07981 138.32933 33919 ft 446 kts 301°
2026-04-16 22:08 -13.05003 138.27361 33912 ft 447 kts 301°
2026-04-16 22:09 -13.02004 138.21750 33907 ft 447 kts 301°
2026-04-16 22:09 -12.99033 138.16200 33906 ft 447 kts 301°
2026-04-16 22:10 -12.96052 138.10631 33904 ft 446 kts 301°
2026-04-16 22:10 -12.93062 138.05051 33902 ft 446 kts 301°
2026-04-16 22:11 -12.90072 137.99474 33902 ft 447 kts 301°
2026-04-16 22:11 -12.87092 137.93916 33901 ft 447 kts 301°
2026-04-16 22:12 -12.84096 137.88335 33901 ft 448 kts 301°
2026-04-16 22:12 -12.81083 137.82727 33901 ft 448 kts 301°
2026-04-16 22:13 -12.78098 137.77173 33902 ft 448 kts 301°
2026-04-16 22:13 -12.75091 137.71582 33901 ft 448 kts 301°
2026-04-16 22:14 -12.72090 137.66005 33901 ft 448 kts 301°
2026-04-16 22:14 -12.69079 137.60411 33902 ft 449 kts 301°
2026-04-16 22:15 -12.66074 137.54835 33903 ft 449 kts 301°
2026-04-16 22:15 -12.63057 137.49237 33903 ft 449 kts 301°
2026-04-16 22:16 -12.60033 137.43633 33902 ft 450 kts 301°
2026-04-16 22:16 -12.57011 137.38036 33902 ft 450 kts 301°
2026-04-16 22:17 -12.53996 137.32451 33902 ft 450 kts 301°
2026-04-16 22:17 -12.50966 137.26845 33902 ft 450 kts 301°
2026-04-16 22:18 -12.47935 137.21239 33902 ft 451 kts 301°
2026-04-16 22:18 -12.44910 137.15646 33902 ft 451 kts 301°
2026-04-16 22:19 -12.41863 137.10017 33902 ft 451 kts 301°
2026-04-16 22:19 -12.38849 137.04450 33903 ft 451 kts 301°
2026-04-16 22:20 -12.35801 136.98822 33902 ft 452 kts 302°
2026-04-16 22:20 -12.32760 136.93211 33904 ft 452 kts 301°
2026-04-16 22:21 -12.29825 136.87527 33904 ft 454 kts 296°
2026-04-16 22:21 -12.27776 136.81432 33906 ft 458 kts 285°
2026-04-16 22:22 -12.26838 136.74979 33904 ft 461 kts 275°
2026-04-16 22:22 -12.26919 136.68455 33906 ft 462 kts 270°
2026-04-16 22:23 -12.27197 136.61897 33908 ft 462 kts 269°
2026-04-16 22:23 -12.27459 136.55328 33910 ft 464 kts 270°
2026-04-16 22:24 -12.27707 136.48776 33913 ft 464 kts 270°
2026-04-16 22:24 -12.27948 136.42181 33913 ft 464 kts 270°
2026-04-16 22:25 -12.28183 136.35641 33911 ft 464 kts 270°
2026-04-16 22:25 -12.28418 136.29057 33902 ft 464 kts 270°
2026-04-16 22:26 -12.28654 136.22475 33898 ft 464 kts 270°
2026-04-16 22:26 -12.28886 136.15889 33897 ft 465 kts 270°
2026-04-16 22:27 -12.29117 136.09322 33896 ft 464 kts 270°
2026-04-16 22:27 -12.29348 136.02731 33896 ft 464 kts 270°
2026-04-16 22:28 -12.29575 135.96150 33895 ft 465 kts 270°
2026-04-16 22:28 -12.29800 135.89586 33900 ft 464 kts 270°
2026-04-16 22:29 -12.30026 135.82967 33895 ft 465 kts 270°
2026-04-16 22:29 -12.30248 135.76405 33900 ft 464 kts 270°
2026-04-16 22:30 -12.30471 135.69818 33899 ft 464 kts 270°
2026-04-16 22:30 -12.30692 135.63249 33901 ft 465 kts 270°
2026-04-16 22:31 -12.30800 135.59932 34024 ft 469 kts 270°
2026-04-16 22:31 -12.30911 135.56592 34333 ft 468 kts 270°
2026-04-16 22:31 -12.31021 135.53293 34681 ft 467 kts 270°
2026-04-16 22:31 -12.31130 135.49991 34890 ft 467 kts 270°
2026-04-16 22:32 -12.31345 135.43388 34899 ft 466 kts 270°
2026-04-16 22:32 -12.31559 135.36784 34901 ft 465 kts 270°
2026-04-16 22:33 -12.31774 135.30162 34903 ft 465 kts 271°
2026-04-16 22:33 -12.31982 135.23618 34904 ft 465 kts 271°
2026-04-16 22:34 -12.32192 135.17032 34903 ft 465 kts 271°
2026-04-16 22:34 -12.32400 135.10400 34906 ft 465 kts 271°
2026-04-16 22:35 -12.32605 135.03841 34909 ft 465 kts 271°
2026-04-16 22:35 -12.32810 134.97253 34906 ft 464 kts 271°
2026-04-16 22:36 -12.33013 134.90680 34907 ft 464 kts 271°
2026-04-16 22:36 -12.33213 134.84113 34909 ft 463 kts 271°
2026-04-16 22:37 -12.33413 134.77533 34911 ft 463 kts 271°
2026-04-16 22:37 -12.33610 134.70976 34912 ft 464 kts 271°
2026-04-16 22:38 -12.33806 134.64404 34912 ft 464 kts 271°
2026-04-16 22:38 -12.34002 134.57806 34912 ft 464 kts 271°
2026-04-16 22:39 -12.34196 134.51250 34913 ft 463 kts 271°
2026-04-16 22:39 -12.34386 134.44699 34913 ft 463 kts 271°
2026-04-16 22:40 -12.34576 134.38127 34912 ft 463 kts 271°
2026-04-16 22:40 -12.34760 134.31584 34913 ft 463 kts 271°
2026-04-16 22:41 -12.34946 134.24985 34916 ft 463 kts 271°
2026-04-16 22:41 -12.35130 134.18433 34915 ft 463 kts 271°
2026-04-16 22:42 -12.35312 134.11871 34919 ft 463 kts 271°
2026-04-16 22:42 -12.35493 134.05295 34921 ft 462 kts 271°
2026-04-16 22:43 -12.35672 133.98747 34923 ft 462 kts 271°
2026-04-16 22:43 -12.35850 133.92183 34929 ft 463 kts 271°
2026-04-16 22:44 -12.36025 133.85641 34931 ft 462 kts 271°
2026-04-16 22:44 -12.36200 133.79086 34931 ft 463 kts 271°
2026-04-16 22:45 -12.36372 133.72528 34938 ft 462 kts 271°
2026-04-16 22:45 -12.36542 133.66007 34937 ft 461 kts 271°
2026-04-16 22:46 -12.36712 133.59457 34936 ft 461 kts 271°
2026-04-16 22:46 -12.36881 133.52896 34932 ft 462 kts 271°
2026-04-16 22:47 -12.37048 133.46347 34932 ft 462 kts 270°
2026-04-16 22:47 -12.37213 133.39824 34933 ft 461 kts 271°
2026-04-16 22:48 -12.37377 133.33249 34931 ft 461 kts 271°
2026-04-16 22:48 -12.37539 133.26721 34928 ft 461 kts 271°
2026-04-16 22:49 -12.37698 133.20187 34929 ft 461 kts 271°
2026-04-16 22:49 -12.37857 133.13655 34925 ft 461 kts 271°
2026-04-16 22:50 -12.38014 133.07101 34925 ft 462 kts 271°
2026-04-16 22:50 -12.38169 133.00557 34928 ft 460 kts 271°
2026-04-16 22:51 -12.38323 132.94052 34925 ft 461 kts 270°
2026-04-16 22:51 -12.38475 132.87524 34926 ft 461 kts 270°
2026-04-16 22:52 -12.38625 132.80992 34925 ft 461 kts 270°
2026-04-16 22:52 -12.38774 132.74466 34923 ft 460 kts 270°
2026-04-16 22:53 -12.38922 132.67928 34923 ft 461 kts 270°
2026-04-16 22:53 -12.39067 132.61417 34918 ft 460 kts 270°
2026-04-16 22:54 -12.39211 132.54889 34913 ft 461 kts 270°
2026-04-16 22:54 -12.39354 132.48331 34911 ft 461 kts 270°
2026-04-16 22:55 -12.39496 132.41824 34910 ft 461 kts 270°
2026-04-16 22:55 -12.39637 132.35289 34910 ft 461 kts 270°
2026-04-16 22:56 -12.39775 132.28717 34910 ft 461 kts 270°
2026-04-16 22:56 -12.39912 132.22179 34908 ft 461 kts 271°
2026-04-16 22:57 -12.40044 132.15669 34908 ft 461 kts 270°
2026-04-16 22:57 -12.40177 132.09111 34908 ft 461 kts 270°
2026-04-16 22:58 -12.40310 132.02574 34908 ft 462 kts 270°
2026-04-16 22:58 -12.40441 131.96025 34906 ft 462 kts 270°
2026-04-16 22:59 -12.40570 131.89465 34907 ft 462 kts 271°
2026-04-16 22:59 -12.40697 131.82939 34906 ft 461 kts 271°
2026-04-16 23:00 -12.40824 131.76364 34906 ft 462 kts 271°
2026-04-16 23:00 -12.40949 131.69818 34906 ft 463 kts 271°
2026-04-16 23:01 -12.41072 131.63251 34906 ft 462 kts 270°
2026-04-16 23:01 -12.41193 131.56706 34905 ft 462 kts 270°
2026-04-16 23:02 -12.41313 131.50143 34905 ft 462 kts 270°
2026-04-16 23:02 -12.41432 131.43602 34901 ft 462 kts 270°
2026-04-16 23:03 -12.41548 131.37070 34900 ft 462 kts 271°
2026-04-16 23:03 -12.41665 131.30495 34901 ft 463 kts 271°
2026-04-16 23:04 -12.41777 131.23959 34902 ft 462 kts 271°
2026-04-16 23:04 -12.41890 131.17360 34903 ft 463 kts 271°
2026-04-16 23:05 -12.42000 131.10812 34905 ft 462 kts 271°
2026-04-16 23:05 -12.42111 131.04269 34911 ft 462 kts 271°
2026-04-16 23:06 -12.42346 130.97722 34913 ft 464 kts 265°
2026-04-16 23:06 -12.43748 130.91313 34915 ft 466 kts 252°
2026-04-16 23:07 -12.46546 130.85310 34914 ft 467 kts 238°
2026-04-16 23:07 -12.50395 130.79979 34911 ft 467 kts 231°
2026-04-16 23:08 -12.54434 130.74771 34909 ft 467 kts 232°
2026-04-16 23:08 -12.58424 130.69580 34909 ft 466 kts 232°
2026-04-16 23:09 -12.62429 130.64339 34911 ft 467 kts 232°
2026-04-16 23:09 -12.66415 130.59106 34916 ft 467 kts 232°
2026-04-16 23:10 -12.70413 130.53850 34918 ft 467 kts 232°
2026-04-16 23:10 -12.74382 130.48628 34921 ft 467 kts 232°
2026-04-16 23:11 -12.78360 130.43394 34924 ft 467 kts 232°
2026-04-16 23:11 -12.82361 130.38129 34925 ft 467 kts 232°
2026-04-16 23:12 -12.86336 130.32892 34924 ft 467 kts 233°
2026-04-16 23:12 -12.90306 130.27661 34925 ft 467 kts 233°
2026-04-16 23:13 -12.94286 130.22412 34926 ft 467 kts 233°
2026-04-16 23:13 -12.98312 130.17099 35300 ft 470 kts 233°
2026-04-16 23:14 -13.00310 130.14462 35687 ft 468 kts 233°
2026-04-16 23:14 -13.02291 130.11850 35922 ft 467 kts 233°
2026-04-16 23:14 -13.06169 130.06728 35923 ft 467 kts 233°
2026-04-16 23:15 -13.12142 129.98828 35921 ft 467 kts 233°
2026-04-16 23:16 -13.16111 129.93574 35921 ft 467 kts 233°
2026-04-16 23:16 -13.20079 129.88319 35919 ft 466 kts 233°
2026-04-16 23:17 -13.24048 129.83063 35916 ft 466 kts 233°
2026-04-16 23:17 -13.28021 129.77805 35918 ft 466 kts 233°
2026-04-16 23:18 -13.31998 129.72534 35919 ft 466 kts 233°
2026-04-16 23:18 -13.35952 129.67288 35918 ft 467 kts 233°
2026-04-16 23:19 -13.39913 129.62030 35917 ft 466 kts 233°
2026-04-16 23:19 -13.43872 129.56773 35916 ft 466 kts 233°
2026-04-16 23:20 -13.47826 129.51517 35918 ft 465 kts 233°
2026-04-16 23:20 -13.51797 129.46234 35918 ft 466 kts 233°
2026-04-16 23:21 -13.55736 129.40993 35917 ft 466 kts 233°
2026-04-16 23:21 -13.59687 129.35731 35915 ft 466 kts 233°
2026-04-16 23:22 -13.63646 129.30455 35914 ft 466 kts 233°
2026-04-16 23:22 -13.67608 129.25176 35920 ft 465 kts 234°
2026-04-16 23:23 -13.71537 129.19933 35921 ft 464 kts 234°
2026-04-16 23:23 -13.75471 129.14681 35923 ft 464 kts 234°
2026-04-16 23:24 -13.79409 129.09419 35925 ft 464 kts 234°
2026-04-16 23:24 -13.83347 129.04156 35926 ft 464 kts 234°
2026-04-16 23:25 -13.87298 128.98872 35927 ft 465 kts 234°
2026-04-16 23:25 -13.91229 128.93611 35924 ft 464 kts 234°
2026-04-16 23:26 -13.95152 128.88356 35926 ft 463 kts 234°
2026-04-16 23:26 -13.99058 128.83122 35926 ft 462 kts 234°
2026-04-16 23:27 -14.02958 128.77892 35925 ft 462 kts 234°
2026-04-16 23:27 -14.06865 128.72649 35925 ft 462 kts 233°
2026-04-16 23:28 -14.10793 128.67371 35925 ft 461 kts 233°
2026-04-16 23:28 -14.14686 128.62141 35926 ft 460 kts 234°
2026-04-16 23:29 -14.18572 128.56923 35926 ft 460 kts 233°
2026-04-16 23:29 -14.22442 128.51727 35927 ft 459 kts 233°
2026-04-16 23:30 -14.26331 128.46500 35927 ft 459 kts 233°
2026-04-16 23:30 -14.30213 128.41275 35926 ft 458 kts 233°
2026-04-16 23:31 -14.34068 128.36084 35925 ft 457 kts 233°
2026-04-16 23:31 -14.37942 128.30864 35924 ft 456 kts 234°
2026-04-16 23:32 -14.41795 128.25668 35924 ft 456 kts 234°
2026-04-16 23:32 -14.45626 128.20500 35924 ft 456 kts 234°
2026-04-16 23:33 -14.49495 128.15276 35923 ft 455 kts 234°
2026-04-16 23:33 -14.53322 128.10106 35924 ft 455 kts 234°
2026-04-16 23:34 -14.57156 128.04921 35927 ft 455 kts 233°
2026-04-16 23:34 -14.60986 127.99740 35930 ft 455 kts 234°
2026-04-16 23:35 -14.64824 127.94546 35933 ft 455 kts 234°
2026-04-16 23:35 -14.68642 127.89374 35939 ft 454 kts 234°
2026-04-16 23:36 -14.72466 127.84190 35944 ft 454 kts 234°
2026-04-16 23:36 -14.76305 127.78982 35950 ft 454 kts 234°
2026-04-16 23:37 -14.80106 127.73821 35958 ft 453 kts 234°
2026-04-16 23:37 -14.83925 127.68632 35968 ft 453 kts 234°
2026-04-16 23:38 -14.87724 127.63471 35973 ft 453 kts 234°
2026-04-16 23:38 -14.91557 127.58263 35978 ft 453 kts 234°
2026-04-16 23:39 -14.95359 127.53089 35985 ft 454 kts 234°
2026-04-16 23:39 -14.99161 127.47912 35988 ft 453 kts 234°
2026-04-16 23:40 -15.02982 127.42703 35998 ft 453 kts 234°
2026-04-16 23:40 -15.06772 127.37535 36000 ft 453 kts 234°
2026-04-16 23:41 -15.10579 127.32339 36003 ft 453 kts 234°
2026-04-16 23:41 -15.14388 127.27135 36002 ft 453 kts 234°
2026-04-16 23:42 -15.18186 127.21943 35999 ft 453 kts 234°
2026-04-16 23:42 -15.21973 127.16764 36001 ft 453 kts 234°
2026-04-16 23:43 -15.25788 127.11542 36001 ft 453 kts 235°
2026-04-16 23:43 -15.29567 127.06365 36003 ft 453 kts 234°
2026-04-16 23:44 -15.33363 127.01164 36008 ft 453 kts 235°
2026-04-16 23:44 -15.37141 126.95982 36012 ft 452 kts 235°
2026-04-16 23:45 -15.40937 126.90773 36014 ft 452 kts 235°
2026-04-16 23:45 -15.44713 126.85585 36018 ft 452 kts 235°
2026-04-16 23:46 -15.48491 126.80393 36021 ft 452 kts 235°
2026-04-16 23:46 -15.52282 126.75182 36022 ft 452 kts 235°
2026-04-16 23:47 -15.56056 126.69985 36022 ft 451 kts 235°
2026-04-16 23:47 -15.59810 126.64819 36023 ft 451 kts 235°
2026-04-16 23:48 -15.63580 126.59625 36024 ft 451 kts 235°
2026-04-16 23:48 -15.67344 126.54433 36026 ft 451 kts 235°
2026-04-16 23:49 -15.71109 126.49236 36031 ft 450 kts 235°
2026-04-16 23:49 -15.74858 126.44057 36034 ft 450 kts 235°
2026-04-16 23:50 -15.78609 126.38875 36034 ft 450 kts 235°
2026-04-16 23:50 -15.82348 126.33704 36036 ft 450 kts 235°
2026-04-16 23:51 -15.86135 126.28464 36039 ft 450 kts 235°
2026-04-16 23:51 -15.89870 126.23292 36042 ft 449 kts 235°
2026-04-16 23:52 -15.93626 126.18089 36048 ft 449 kts 236°
2026-04-16 23:52 -15.97356 126.12914 36050 ft 449 kts 236°
2026-04-16 23:53 -16.01076 126.07752 36055 ft 449 kts 236°
2026-04-16 23:53 -16.04815 126.02557 36057 ft 448 kts 236°
2026-04-16 23:54 -16.08555 125.97358 36062 ft 448 kts 235°
2026-04-16 23:54 -16.12286 125.92172 36063 ft 448 kts 235°
2026-04-16 23:55 -16.16003 125.87000 36060 ft 448 kts 236°
2026-04-16 23:55 -16.19729 125.81809 36058 ft 448 kts 236°
2026-04-16 23:56 -16.23453 125.76617 36052 ft 448 kts 236°
2026-04-16 23:56 -16.27169 125.71431 36051 ft 447 kts 235°
2026-04-16 23:57 -16.30882 125.66248 36045 ft 447 kts 235°
2026-04-16 23:57 -16.34574 125.61091 36051 ft 447 kts 235°
2026-04-16 23:58 -16.38295 125.55889 36055 ft 447 kts 235°
2026-04-16 23:58 -16.41998 125.50707 36054 ft 446 kts 236°
2026-04-16 23:59 -16.45716 125.45504 36049 ft 446 kts 236°
2026-04-16 23:59 -16.49404 125.40346 36048 ft 446 kts 236°
2026-04-17 00:00 -16.53091 125.35180 36044 ft 446 kts 236°
2026-04-17 00:00 -16.56796 125.29985 36040 ft 446 kts 236°
2026-04-17 00:01 -16.60487 125.24805 36037 ft 446 kts 236°
2026-04-17 00:01 -16.64198 125.19593 36039 ft 446 kts 236°
2026-04-17 00:02 -16.67881 125.14416 36033 ft 445 kts 236°
2026-04-17 00:02 -16.71560 125.09240 36033 ft 445 kts 236°
2026-04-17 00:03 -16.75230 125.04073 36030 ft 444 kts 236°
2026-04-17 00:03 -16.78883 124.98927 36026 ft 443 kts 236°
2026-04-17 00:04 -16.82551 124.93755 36027 ft 443 kts 236°
2026-04-17 00:04 -16.86214 124.88587 36026 ft 442 kts 236°
2026-04-17 00:05 -16.89860 124.83439 36027 ft 442 kts 236°
2026-04-17 00:05 -16.93508 124.78285 36027 ft 441 kts 236°
2026-04-17 00:06 -16.97158 124.73125 36024 ft 442 kts 236°
2026-04-17 00:06 -17.00802 124.67968 36023 ft 441 kts 236°
2026-04-17 00:07 -17.04422 124.62842 36019 ft 441 kts 236°
2026-04-17 00:07 -17.08070 124.57672 36010 ft 441 kts 236°
2026-04-17 00:08 -17.11692 124.52537 36004 ft 442 kts 236°
2026-04-17 00:08 -17.15331 124.47372 36000 ft 442 kts 236°
2026-04-17 00:09 -17.18987 124.42181 35997 ft 441 kts 236°
2026-04-17 00:09 -17.22612 124.37028 35994 ft 441 kts 236°
2026-04-17 00:10 -17.26239 124.31867 35989 ft 441 kts 236°
2026-04-17 00:10 -17.29881 124.26680 35986 ft 441 kts 236°
2026-04-17 00:11 -17.33499 124.21525 35986 ft 441 kts 236°
2026-04-17 00:11 -17.37142 124.16332 35985 ft 441 kts 236°
2026-04-17 00:12 -17.40753 124.11182 35985 ft 441 kts 236°
2026-04-17 00:12 -17.44381 124.05999 35984 ft 441 kts 236°
2026-04-17 00:13 -17.47976 124.00858 35983 ft 440 kts 236°
2026-04-17 00:13 -17.51593 123.95682 35983 ft 440 kts 236°
2026-04-17 00:14 -17.55214 123.90497 35982 ft 440 kts 236°
2026-04-17 00:14 -17.58782 123.85267 35981 ft 440 kts 239°
2026-04-17 00:15 -17.61922 123.79825 35981 ft 439 kts 242°
2026-04-17 00:15 -17.64978 123.74319 35983 ft 438 kts 242°
2026-04-17 00:16 -17.68038 123.68799 35986 ft 438 kts 242°
2026-04-17 00:16 -17.71105 123.63268 35987 ft 438 kts 243°
2026-04-17 00:17 -17.74152 123.57770 35989 ft 438 kts 242°
2026-04-17 00:17 -17.77220 123.52232 35989 ft 437 kts 242°
2026-04-17 00:18 -17.80258 123.46744 35989 ft 437 kts 242°
2026-04-17 00:18 -17.83309 123.41228 35990 ft 438 kts 243°
2026-04-17 00:19 -17.86359 123.35712 35992 ft 438 kts 243°
2026-04-17 00:19 -17.89416 123.30177 35994 ft 438 kts 243°
2026-04-17 00:20 -17.92460 123.24658 35995 ft 438 kts 243°
2026-04-17 00:20 -17.95499 123.19144 35998 ft 437 kts 243°
2026-04-17 00:21 -17.98537 123.13628 36000 ft 437 kts 243°
2026-04-17 00:21 -18.01575 123.08110 36003 ft 437 kts 243°
2026-04-17 00:22 -18.06109 122.99862 36001 ft 437 kts 243°
2026-04-17 00:22 -18.09143 122.94335 35994 ft 437 kts 243°
2026-04-17 00:23 -18.12172 122.88813 35992 ft 437 kts 243°
2026-04-17 00:23 -18.15199 122.83291 35994 ft 435 kts 243°
2026-04-17 00:24 -18.18225 122.77766 35992 ft 435 kts 243°
2026-04-17 00:24 -18.21238 122.72264 35993 ft 435 kts 243°
2026-04-17 00:25 -18.24234 122.66785 35990 ft 434 kts 243°
2026-04-17 00:25 -18.27235 122.61289 35985 ft 434 kts 243°
2026-04-17 00:26 -18.30243 122.55776 35983 ft 433 kts 243°
2026-04-17 00:26 -18.33241 122.50277 35984 ft 433 kts 243°
2026-04-17 00:27 -18.36236 122.44784 35982 ft 433 kts 243°
2026-04-17 00:27 -18.39212 122.39317 35984 ft 433 kts 243°
2026-04-17 00:28 -18.42200 122.33825 35984 ft 432 kts 244°
2026-04-17 00:28 -18.45168 122.28359 35983 ft 431 kts 244°
2026-04-17 00:29 -18.48135 122.22894 35983 ft 430 kts 243°
2026-04-17 00:29 -18.51087 122.17453 35981 ft 430 kts 243°
2026-04-17 00:30 -18.54052 122.11982 35983 ft 430 kts 244°
2026-04-17 00:30 -18.57008 122.06522 35980 ft 430 kts 244°
2026-04-17 00:31 -18.59967 122.01054 35978 ft 430 kts 244°
2026-04-17 00:31 -18.62912 121.95606 35976 ft 429 kts 244°
2026-04-17 00:32 -18.65862 121.90142 35975 ft 428 kts 243°
2026-04-17 00:32 -18.68786 121.84728 35974 ft 428 kts 244°
2026-04-17 00:33 -18.71722 121.79280 35973 ft 427 kts 244°
2026-04-17 00:33 -18.74661 121.73825 35976 ft 427 kts 244°
2026-04-17 00:34 -18.77579 121.68401 35981 ft 427 kts 244°
2026-04-17 00:34 -18.80507 121.62954 35977 ft 427 kts 244°
2026-04-17 00:35 -18.83414 121.57544 35978 ft 427 kts 244°
2026-04-17 00:35 -18.86349 121.52078 35979 ft 427 kts 244°
2026-04-17 00:36 -18.89252 121.46663 35976 ft 427 kts 244°
2026-04-17 00:36 -18.92180 121.41200 35972 ft 427 kts 244°
2026-04-17 00:37 -18.95103 121.35741 35973 ft 427 kts 244°
2026-04-17 00:37 -18.98013 121.30302 35974 ft 426 kts 244°
2026-04-17 00:38 -19.00913 121.24873 35971 ft 425 kts 244°
2026-04-17 00:38 -19.03812 121.19441 35969 ft 425 kts 244°
2026-04-17 00:39 -19.06692 121.14044 35969 ft 425 kts 244°
2026-04-17 00:39 -19.09586 121.08615 35968 ft 424 kts 244°
2026-04-17 00:40 -19.12477 121.03185 35969 ft 424 kts 244°
2026-04-17 00:40 -19.15365 120.97752 35967 ft 425 kts 244°
2026-04-17 00:41 -19.18318 120.92197 35968 ft 425 kts 244°
2026-04-17 00:41 -19.21204 120.86761 35971 ft 424 kts 244°
2026-04-17 00:42 -19.24083 120.81337 35974 ft 424 kts 245°
2026-04-17 00:42 -19.26971 120.75887 35979 ft 424 kts 244°
2026-04-17 00:43 -19.29845 120.70457 35985 ft 423 kts 245°
2026-04-17 00:43 -19.32707 120.65044 35985 ft 423 kts 245°
2026-04-17 00:44 -19.35569 120.59625 35985 ft 422 kts 245°
2026-04-17 00:44 -19.38426 120.54215 35984 ft 422 kts 245°
2026-04-17 00:45 -19.41278 120.48804 35986 ft 422 kts 245°
2026-04-17 00:45 -19.44125 120.43395 35984 ft 422 kts 245°
2026-04-17 00:46 -19.46934 120.38051 35986 ft 421 kts 245°
2026-04-17 00:46 -19.49780 120.32628 35985 ft 421 kts 245°
2026-04-17 00:47 -19.52631 120.27193 35984 ft 421 kts 245°
2026-04-17 00:47 -19.55456 120.21806 35986 ft 420 kts 245°
2026-04-17 00:48 -19.58307 120.16360 35982 ft 421 kts 245°
2026-04-17 00:48 -19.61125 120.10971 35986 ft 420 kts 245°
2026-04-17 00:49 -19.63950 120.05564 35984 ft 420 kts 245°
2026-04-17 00:49 -19.66769 120.00168 35984 ft 419 kts 245°
2026-04-17 00:50 -19.69577 119.94785 35984 ft 419 kts 245°
2026-04-17 00:50 -19.72393 119.89381 35989 ft 418 kts 245°
2026-04-17 00:51 -19.75201 119.83985 35983 ft 418 kts 245°
2026-04-17 00:51 -19.78001 119.78602 35987 ft 419 kts 245°
2026-04-17 00:52 -19.80820 119.73180 35986 ft 419 kts 245°
2026-04-17 00:52 -19.83606 119.67812 35983 ft 418 kts 245°
2026-04-17 00:53 -19.86412 119.62406 35987 ft 418 kts 245°
2026-04-17 00:53 -19.89204 119.57018 35985 ft 416 kts 245°
2026-04-17 00:54 -19.91998 119.51621 35987 ft 416 kts 245°
2026-04-17 00:54 -19.94778 119.46248 35987 ft 416 kts 245°
2026-04-17 00:55 -19.97561 119.40861 35984 ft 416 kts 245°
2026-04-17 00:55 -20.00330 119.35497 35984 ft 416 kts 245°
2026-04-17 00:56 -20.03122 119.30084 35984 ft 415 kts 246°
2026-04-17 00:56 -20.05887 119.24719 35983 ft 416 kts 246°
2026-04-17 00:57 -20.08650 119.19351 35985 ft 416 kts 246°
2026-04-17 00:57 -20.11424 119.13959 35984 ft 416 kts 246°
2026-04-17 00:58 -20.14195 119.08568 35987 ft 415 kts 246°
2026-04-17 00:58 -20.16941 119.03218 35984 ft 414 kts 246°
2026-04-17 00:59 -20.19707 118.97824 35986 ft 414 kts 246°
2026-04-17 00:59 -20.22439 118.92488 35988 ft 413 kts 246°
2026-04-17 01:00 -20.25184 118.87128 35986 ft 413 kts 246°
2026-04-17 01:00 -20.27925 118.81767 35985 ft 412 kts 246°
2026-04-17 01:01 -20.30675 118.76380 35982 ft 412 kts 246°
2026-04-17 01:01 -20.33431 118.71046 35981 ft 414 kts 243°
2026-04-17 01:02 -20.37106 118.66294 35983 ft 423 kts 228°
2026-04-17 01:02 -20.41960 118.62655 35979 ft 434 kts 213°
2026-04-17 01:03 -20.47724 118.60490 35982 ft 446 kts 198°
2026-04-17 01:03 -20.53873 118.59338 35981 ft 446 kts 195°
2026-04-17 01:04 -20.59969 118.58266 35982 ft 445 kts 195°
2026-04-17 01:04 -20.66092 118.57172 35984 ft 445 kts 196°
2026-04-17 01:05 -20.72203 118.56070 35984 ft 444 kts 196°
2026-04-17 01:05 -20.78310 118.54963 35985 ft 444 kts 196°
2026-04-17 01:06 -20.84385 118.53862 35985 ft 444 kts 196°
2026-04-17 01:06 -20.90488 118.52754 35985 ft 444 kts 196°
2026-04-17 01:07 -20.96615 118.51640 35985 ft 445 kts 197°
2026-04-17 01:07 -21.02691 118.50534 35986 ft 444 kts 196°
2026-04-17 01:08 -21.08810 118.49422 35988 ft 444 kts 197°
2026-04-17 01:08 -21.14886 118.48314 35991 ft 443 kts 197°
2026-04-17 01:09 -21.20959 118.47207 35997 ft 443 kts 197°
2026-04-17 01:09 -21.27067 118.46093 36004 ft 443 kts 197°
2026-04-17 01:10 -21.33164 118.44978 36009 ft 442 kts 197°
2026-04-17 01:10 -21.39240 118.43868 36013 ft 443 kts 197°
2026-04-17 01:11 -21.45322 118.42755 36016 ft 442 kts 197°
2026-04-17 01:11 -21.51356 118.41650 36019 ft 442 kts 197°
2026-04-17 01:12 -21.57437 118.40536 36026 ft 442 kts 197°
2026-04-17 01:12 -21.63512 118.39422 36029 ft 442 kts 197°
2026-04-17 01:13 -21.69569 118.38309 36034 ft 442 kts 197°
2026-04-17 01:13 -21.75639 118.37195 36037 ft 442 kts 197°
2026-04-17 01:14 -21.81706 118.36079 36043 ft 442 kts 197°
2026-04-17 01:14 -21.87789 118.34959 36050 ft 441 kts 198°
2026-04-17 01:15 -21.93817 118.33849 36059 ft 440 kts 198°
2026-04-17 01:15 -21.99729 118.32385 36044 ft 423 kts 215°
2026-04-17 01:16 -22.02041 118.30537 36070 ft 403 kts 234°
2026-04-17 01:16 -22.03577 118.28120 36078 ft 389 kts 251°
2026-04-17 01:16 -22.05058 118.22595 36090 ft 387 kts 259°
2026-04-17 01:17 -22.06418 118.16953 36084 ft 391 kts 259°
2026-04-17 01:17 -22.07784 118.11295 36086 ft 391 kts 259°
2026-04-17 01:18 -22.09151 118.05617 36089 ft 391 kts 259°
2026-04-17 01:18 -22.10520 117.99920 36045 ft 388 kts 259°
2026-04-17 01:19 -22.11199 117.97095 35426 ft 390 kts 259°
2026-04-17 01:19 -22.11877 117.94258 34257 ft 400 kts 259°
2026-04-17 01:19 -22.12563 117.91383 33174 ft 399 kts 259°
2026-04-17 01:19 -22.13249 117.88516 31840 ft 399 kts 258°
2026-04-17 01:20 -22.13933 117.85652 30251 ft 403 kts 258°
2026-04-17 01:20 -22.14625 117.82752 28686 ft 401 kts 258°
2026-04-17 01:20 -22.15297 117.79936 27861 ft 383 kts 257°
2026-04-17 01:20 -22.15949 117.77223 27217 ft 364 kts 257°
2026-04-17 01:21 -22.16560 117.74663 26617 ft 347 kts 257°
2026-04-17 01:21 -22.17147 117.72200 26048 ft 331 kts 257°
2026-04-17 01:21 -22.17702 117.69868 25512 ft 316 kts 257°
2026-04-17 01:21 -22.18232 117.67636 25003 ft 303 kts 256°
2026-04-17 01:22 -22.18748 117.65468 24508 ft 292 kts 256°
2026-04-17 01:22 -22.19238 117.63401 23966 ft 283 kts 256°
2026-04-17 01:22 -22.19721 117.61363 23306 ft 280 kts 256°
2026-04-17 01:22 -22.20199 117.59349 22617 ft 278 kts 255°
2026-04-17 01:23 -22.21013 117.57420 21927 ft 296 kts 235°
2026-04-17 01:23 -22.22480 117.55902 21242 ft 299 kts 217°
2026-04-17 01:23 -22.24393 117.55004 20552 ft 306 kts 197°
2026-04-17 01:23 -22.26542 117.54909 19864 ft 315 kts 175°
2026-04-17 01:24 -22.28629 117.55711 19169 ft 324 kts 152°
2026-04-17 01:24 -22.30288 117.57327 18493 ft 332 kts 128°
2026-04-17 01:24 -22.31260 117.59601 17791 ft 336 kts 102°
2026-04-17 01:24 -22.31311 117.62064 17098 ft 334 kts 77°
2026-04-17 01:25 -22.30542 117.64404 16414 ft 330 kts 64°
2026-04-17 01:25 -22.29594 117.66634 15722 ft 328 kts 64°
2026-04-17 01:25 -22.28651 117.68853 15028 ft 327 kts 64°
2026-04-17 01:25 -22.27715 117.71092 14329 ft 324 kts 64°
2026-04-17 01:26 -22.26809 117.73293 13641 ft 322 kts 65°
2026-04-17 01:26 -22.25916 117.75487 12956 ft 320 kts 65°
2026-04-17 01:26 -22.25039 117.77655 12283 ft 317 kts 64°
2026-04-17 01:26 -22.24160 117.79832 11599 ft 313 kts 64°
2026-04-17 01:27 -22.23299 117.81961 10915 ft 309 kts 64°
2026-04-17 01:27 -22.22462 117.84034 10336 ft 300 kts 64°
2026-04-17 01:27 -22.21644 117.86062 9882 ft 288 kts 63°
2026-04-17 01:27 -22.20863 117.87996 9602 ft 277 kts 63°
2026-04-17 01:28 -22.20104 117.89867 9302 ft 271 kts 63°
2026-04-17 01:28 -22.19369 117.91682 8988 ft 257 kts 63°
2026-04-17 01:28 -22.18673 117.93399 8737 ft 242 kts 64°
2026-04-17 01:28 -22.18009 117.95037 8499 ft 235 kts 64°
2026-04-17 01:29 -22.17358 117.96641 8264 ft 234 kts 64°
2026-04-17 01:29 -22.16051 117.99860 7766 ft 234 kts 64°
2026-04-17 01:29 -22.15395 118.01473 7515 ft 235 kts 64°
2026-04-17 01:30 -22.14741 118.03087 7259 ft 235 kts 64°
2026-04-17 01:30 -22.14088 118.04694 7001 ft 236 kts 65°
2026-04-17 01:30 -22.13429 118.06316 6739 ft 236 kts 65°
2026-04-17 01:30 -22.12768 118.07935 6501 ft 234 kts 63°
2026-04-17 01:31 -22.11810 118.09244 6478 ft 224 kts 29°
2026-04-17 01:31 -22.10309 118.09689 6508 ft 224 kts
2026-04-17 01:31 -22.08765 118.09756 6511 ft 223 kts
2026-04-17 01:31 -22.07205 118.09821 6508 ft 223 kts 357°
2026-04-17 01:32 -22.05738 118.09340 6501 ft 224 kts 324°
2026-04-17 01:32 -22.04731 118.08075 6511 ft 226 kts 294°
2026-04-17 01:32 -22.04470 118.06409 6516 ft 229 kts 263°
2026-04-17 01:32 -22.05053 118.04826 6519 ft 231 kts 231°
2026-04-17 01:33 -22.06337 118.03796 6526 ft 233 kts 199°
2026-04-17 01:33 -22.07926 118.03649 6528 ft 233 kts 166°
2026-04-17 01:33 -22.09369 118.04450 6529 ft 232 kts 133°
2026-04-17 01:33 -22.10305 118.05844 6535 ft 230 kts 122°
2026-04-17 01:34 -22.11372 118.07109 6521 ft 231 kts 148°
2026-04-17 01:34 -22.12908 118.07610 6510 ft 234 kts 179°
2026-04-17 01:34 -22.14523 118.07534 6272 ft 234 kts 184°
2026-04-17 01:34 -22.16168 118.07401 6006 ft 234 kts 185°
2026-04-17 01:35 -22.17766 118.07260 5810 ft 228 kts 185°
2026-04-17 01:35 -22.19351 118.07120 5797 ft 229 kts 185°
2026-04-17 01:35 -22.20927 118.06845 5680 ft 228 kts 205°
2026-04-17 01:35 -22.22076 118.05727 5521 ft 225 kts 246°
2026-04-17 01:36 -22.22444 118.04102 5405 ft 223 kts 263°
2026-04-17 01:36 -22.22653 118.02451 5078 ft 221 kts 261°
2026-04-17 01:36 -22.22922 118.00840 4763 ft 217 kts 258°
2026-04-17 01:36 -22.23252 117.99258 4467 ft 213 kts 256°
2026-04-17 01:37 -22.23603 117.97760 4257 ft 201 kts 255°
2026-04-17 01:37 -22.23958 117.96320 3970 ft 193 kts 253°
2026-04-17 01:37 -22.24463 117.95056 3755 ft 180 kts 237°
2026-04-17 01:37 -22.25170 117.93980 3521 ft 167 kts 233°
2026-04-17 01:38 -22.25662 117.92899 3236 ft 159 kts 256°
2026-04-17 01:38 -22.25662 117.91760 3025 ft 145 kts 275°
2026-04-17 01:38 -22.25617 117.90705 2841 ft 139 kts 268°
2026-04-17 01:38 -22.25631 117.89661 2699 ft 138 kts 268°
2026-04-17 01:39 -22.25640 117.88632 2537 ft 138 kts 266°
2026-04-17 01:39 -22.25656 117.87599 2334 ft 138 kts 267°
2026-04-17 01:39 -22.25660 117.86574 2120 ft 136 kts 267°
2026-04-17 01:39 -22.25675 117.85554 2016 ft 128 kts 267°
2026-04-17 01:40 -22.25678 117.84915 2011 ft 42 kts 269°
2026-04-17 01:40 -22.25679 117.84719 2007 ft 10 kts 272°
2026-04-17 01:40 -22.25670 117.84651 2006 ft 4 kts 264°
2026-04-17 01:40 -22.25682 117.84662 2007 ft 3 kts 105°
2026-04-17 01:41 -22.25682 117.84701 2007 ft 10 kts 86°
2026-04-17 01:41 -22.25677 117.84802 2009 ft 13 kts 89°
2026-04-17 01:41 -22.25676 117.84892 2010 ft 10 kts 80°
2026-04-17 01:41 -22.25623 117.84920 2012 ft 7 kts 359°
2026-04-17 01:42 -22.25584 117.84919 2014 ft 3 kts 359°
2026-04-17 01:42 -22.25556 117.84919 2015 ft 8 kts
2026-04-17 01:42 -22.25488 117.84930 2019 ft 8 kts 41°
2026-04-17 01:42 -22.25469 117.84972 2021 ft 4 kts 50°
2026-04-17 01:43 -22.25453 117.84973 2022 ft 1 kts 318°
2026-04-17 01:43 -22.25442 117.84956 2022 ft 0 kts 311°